sensor_id;sensor_type;location;lat;lon;timestamp;temperature;humidity
5901;DHT22;2976;49.764;9.796;2023-02-18T00:01:46;10.50;99.90
5901;DHT22;2976;49.764;9.796;2023-02-18T00:04:12;10.60;99.90
5901;DHT22;2976;49.764;9.796;2023-02-18T00:06:38;10.50;99.90
5901;DHT22;2976;49.764;9.796;2023-02-18T00:09:04;10.60;99.90
5901;DHT22;2976;49.764;9.796;2023-02-18T00:11:33;10.60;99.90
5901;DHT22;2976;49.764;9.796;2023-02-18T00:14:00;10.60;99.90
5901;DHT22;2976;49.764;9.796;2023-02-18T00:16:28;10.70;99.90
5901;DHT22;2976;49.764;9.796;2023-02-18T00:19:06;10.70;99.90
5901;DHT22;2976;49.764;9.796;2023-02-18T00:21:33;10.70;99.90
5901;DHT22;2976;49.764;9.796;2023-02-18T00:23:59;10.60;99.90
5901;DHT22;2976;49.764;9.796;2023-02-18T00:26:25;10.70;99.90
5901;DHT22;2976;49.764;9.796;2023-02-18T00:28:51;10.70;99.90
5901;DHT22;2976;49.764;9.796;2023-02-18T00:31:21;10.80;99.90
5901;DHT22;2976;49.764;9.796;2023-02-18T00:33:47;10.70;99.90
5901;DHT22;2976;49.764;9.796;2023-02-18T00:36:15;10.80;99.90
5901;DHT22;2976;49.764;9.796;2023-02-18T00:38:45;10.80;99.90
5901;DHT22;2976;49.764;9.796;2023-02-18T00:41:10;10.80;99.90
5901;DHT22;2976;49.764;9.796;2023-02-18T00:43:36;10.70;99.90
5901;DHT22;2976;49.764;9.796;2023-02-18T00:46:02;10.70;99.90
5901;DHT22;2976;49.764;9.796;2023-02-18T00:48:27;10.60;99.90
5901;DHT22;2976;49.764;9.796;2023-02-18T00:50:53;10.50;99.90
5901;DHT22;2976;49.764;9.796;2023-02-18T00:53:18;10.50;99.90
5901;DHT22;2976;49.764;9.796;2023-02-18T00:55:45;10.30;99.90
5901;DHT22;2976;49.764;9.796;2023-02-18T00:58:13;10.20;99.90
5901;DHT22;2976;49.764;9.796;2023-02-18T01:00:38;10.20;99.90
5901;DHT22;2976;49.764;9.796;2023-02-18T01:03:05;10.10;99.90
5901;DHT22;2976;49.764;9.796;2023-02-18T01:05:32;10.10;99.90
5901;DHT22;2976;49.764;9.796;2023-02-18T01:07:57;10.10;99.90
5901;DHT22;2976;49.764;9.796;2023-02-18T01:10:23;10.00;99.90
5901;DHT22;2976;49.764;9.796;2023-02-18T01:12:48;9.90;99.90
5901;DHT22;2976;49.764;9.796;2023-02-18T01:15:15;9.90;99.90
5901;DHT22;2976;49.764;9.796;2023-02-18T01:17:41;9.90;99.90
5901;DHT22;2976;49.764;9.796;2023-02-18T01:20:08;9.90;99.90
5901;DHT22;2976;49.764;9.796;2023-02-18T01:22:34;9.90;99.90
5901;DHT22;2976;49.764;9.796;2023-02-18T01:24:59;9.80;99.90
5901;DHT22;2976;49.764;9.796;2023-02-18T01:27:25;9.80;99.90
5901;DHT22;2976;49.764;9.796;2023-02-18T01:29:51;9.70;99.90
5901;DHT22;2976;49.764;9.796;2023-02-18T01:32:16;9.70;99.90
5901;DHT22;2976;49.764;9.796;2023-02-18T01:34:42;9.80;99.90
5901;DHT22;2976;49.764;9.796;2023-02-18T01:37:07;9.70;99.90
5901;DHT22;2976;49.764;9.796;2023-02-18T01:39:33;9.70;99.90
5901;DHT22;2976;49.764;9.796;2023-02-18T01:41:58;9.80;99.90
5901;DHT22;2976;49.764;9.796;2023-02-18T01:44:26;9.70;99.90
5901;DHT22;2976;49.764;9.796;2023-02-18T01:46:52;9.70;99.90
5901;DHT22;2976;49.764;9.796;2023-02-18T01:49:38;9.70;99.90
5901;DHT22;2976;49.764;9.796;2023-02-18T01:52:07;9.70;99.90
5901;DHT22;2976;49.764;9.796;2023-02-18T01:54:38;9.60;99.90
5901;DHT22;2976;49.764;9.796;2023-02-18T01:57:19;9.60;99.90
5901;DHT22;2976;49.764;9.796;2023-02-18T01:59:51;9.60;99.90
5901;DHT22;2976;49.764;9.796;2023-02-18T02:02:21;9.60;99.90
5901;DHT22;2976;49.764;9.796;2023-02-18T02:04:49;9.70;99.90
5901;DHT22;2976;49.764;9.796;2023-02-18T02:07:15;9.70;99.90
5901;DHT22;2976;49.764;9.796;2023-02-18T02:09:43;9.70;99.90
5901;DHT22;2976;49.764;9.796;2023-02-18T02:12:34;9.70;99.90
5901;DHT22;2976;49.764;9.796;2023-02-18T02:15:31;9.60;99.90
5901;DHT22;2976;49.764;9.796;2023-02-18T02:18:28;9.60;99.90
5901;DHT22;2976;49.764;9.796;2023-02-18T02:21:23;9.60;99.90
5901;DHT22;2976;49.764;9.796;2023-02-18T02:26:57;9.60;99.90
5901;DHT22;2976;49.764;9.796;2023-02-18T02:29:49;9.60;99.90
5901;DHT22;2976;49.764;9.796;2023-02-18T02:32:56;9.60;99.90
5901;DHT22;2976;49.764;9.796;2023-02-18T02:35:38;9.70;99.90
5901;DHT22;2976;49.764;9.796;2023-02-18T02:38:14;9.60;99.90
5901;DHT22;2976;49.764;9.796;2023-02-18T02:46:40;9.60;99.90
5901;DHT22;2976;49.764;9.796;2023-02-18T02:52:29;9.60;99.90
5901;DHT22;2976;49.764;9.796;2023-02-18T02:54:55;9.50;99.90
5901;DHT22;2976;49.764;9.796;2023-02-18T02:59:51;9.50;99.90
5901;DHT22;2976;49.764;9.796;2023-02-18T03:02:36;9.50;99.90
5901;DHT22;2976;49.764;9.796;2023-02-18T03:05:18;9.50;99.90
5901;DHT22;2976;49.764;9.796;2023-02-18T03:16:25;9.50;99.90
5901;DHT22;2976;49.764;9.796;2023-02-18T03:18:56;9.50;99.90
5901;DHT22;2976;49.764;9.796;2023-02-18T03:21:43;9.40;99.90
5901;DHT22;2976;49.764;9.796;2023-02-18T03:24:15;9.40;99.90
5901;DHT22;2976;49.764;9.796;2023-02-18T03:26:47;9.40;99.90
5901;DHT22;2976;49.764;9.796;2023-02-18T03:29:15;9.40;99.90
5901;DHT22;2976;49.764;9.796;2023-02-18T03:31:42;9.40;99.90
5901;DHT22;2976;49.764;9.796;2023-02-18T03:34:12;9.40;99.90
5901;DHT22;2976;49.764;9.796;2023-02-18T03:36:40;9.40;99.90
5901;DHT22;2976;49.764;9.796;2023-02-18T03:39:09;9.40;99.90
5901;DHT22;2976;49.764;9.796;2023-02-18T03:41:36;9.30;99.90
5901;DHT22;2976;49.764;9.796;2023-02-18T03:44:07;9.40;99.90
5901;DHT22;2976;49.764;9.796;2023-02-18T03:46:34;9.40;99.90
5901;DHT22;2976;49.764;9.796;2023-02-18T03:49:01;9.40;99.90
5901;DHT22;2976;49.764;9.796;2023-02-18T03:51:27;9.40;99.90
5901;DHT22;2976;49.764;9.796;2023-02-18T03:53:53;9.40;99.90
5901;DHT22;2976;49.764;9.796;2023-02-18T03:56:19;9.40;99.90
5901;DHT22;2976;49.764;9.796;2023-02-18T03:58:44;9.40;99.90
5901;DHT22;2976;49.764;9.796;2023-02-18T04:01:10;9.40;99.90
5901;DHT22;2976;49.764;9.796;2023-02-18T04:03:36;9.40;99.90
5901;DHT22;2976;49.764;9.796;2023-02-18T04:06:01;9.40;99.90
5901;DHT22;2976;49.764;9.796;2023-02-18T04:08:27;9.40;99.90
5901;DHT22;2976;49.764;9.796;2023-02-18T04:10:52;9.40;99.90
5901;DHT22;2976;49.764;9.796;2023-02-18T04:13:18;9.40;99.90
5901;DHT22;2976;49.764;9.796;2023-02-18T04:15:44;9.40;99.90
5901;DHT22;2976;49.764;9.796;2023-02-18T04:18:10;9.40;99.90
5901;DHT22;2976;49.764;9.796;2023-02-18T04:20:36;9.40;99.90
5901;DHT22;2976;49.764;9.796;2023-02-18T04:23:02;9.40;99.90
5901;DHT22;2976;49.764;9.796;2023-02-18T04:25:28;9.40;99.90
5901;DHT22;2976;49.764;9.796;2023-02-18T04:27:54;9.40;99.90
5901;DHT22;2976;49.764;9.796;2023-02-18T04:30:19;9.40;99.90
5901;DHT22;2976;49.764;9.796;2023-02-18T04:32:45;9.40;99.90
5901;DHT22;2976;49.764;9.796;2023-02-18T04:35:10;9.40;99.90
5901;DHT22;2976;49.764;9.796;2023-02-18T04:37:36;9.40;99.90
5901;DHT22;2976;49.764;9.796;2023-02-18T04:40:02;9.40;99.90
5901;DHT22;2976;49.764;9.796;2023-02-18T04:42:28;9.40;99.90
5901;DHT22;2976;49.764;9.796;2023-02-18T04:44:53;9.40;99.90
5901;DHT22;2976;49.764;9.796;2023-02-18T04:47:19;9.40;99.90
5901;DHT22;2976;49.764;9.796;2023-02-18T04:49:44;9.40;99.90
5901;DHT22;2976;49.764;9.796;2023-02-18T04:52:10;9.40;99.90
5901;DHT22;2976;49.764;9.796;2023-02-18T04:54:35;9.40;99.90
5901;DHT22;2976;49.764;9.796;2023-02-18T04:57:01;9.40;99.90
5901;DHT22;2976;49.764;9.796;2023-02-18T04:59:26;9.40;99.90
5901;DHT22;2976;49.764;9.796;2023-02-18T05:01:52;9.40;99.90
5901;DHT22;2976;49.764;9.796;2023-02-18T05:04:17;9.40;99.90
5901;DHT22;2976;49.764;9.796;2023-02-18T05:06:43;9.30;99.90
5901;DHT22;2976;49.764;9.796;2023-02-18T05:09:09;9.30;99.90
5901;DHT22;2976;49.764;9.796;2023-02-18T05:11:35;9.30;99.90
5901;DHT22;2976;49.764;9.796;2023-02-18T05:14:00;9.30;99.90
5901;DHT22;2976;49.764;9.796;2023-02-18T05:16:26;9.30;99.90
5901;DHT22;2976;49.764;9.796;2023-02-18T05:18:52;9.30;99.90
5901;DHT22;2976;49.764;9.796;2023-02-18T05:21:17;9.30;99.90
5901;DHT22;2976;49.764;9.796;2023-02-18T05:23:43;9.30;99.90
5901;DHT22;2976;49.764;9.796;2023-02-18T05:26:08;9.30;99.90
5901;DHT22;2976;49.764;9.796;2023-02-18T05:28:35;9.30;99.90
5901;DHT22;2976;49.764;9.796;2023-02-18T05:31:01;9.30;99.90
5901;DHT22;2976;49.764;9.796;2023-02-18T05:33:26;9.30;99.90
5901;DHT22;2976;49.764;9.796;2023-02-18T05:35:52;9.30;99.90
5901;DHT22;2976;49.764;9.796;2023-02-18T05:38:17;9.30;99.90
5901;DHT22;2976;49.764;9.796;2023-02-18T05:40:43;9.30;99.90
5901;DHT22;2976;49.764;9.796;2023-02-18T05:43:08;9.30;99.90
5901;DHT22;2976;49.764;9.796;2023-02-18T05:45:34;9.30;99.90
5901;DHT22;2976;49.764;9.796;2023-02-18T05:48:00;9.30;99.90
5901;DHT22;2976;49.764;9.796;2023-02-18T05:50:25;9.30;99.90
5901;DHT22;2976;49.764;9.796;2023-02-18T05:52:51;9.30;99.90
5901;DHT22;2976;49.764;9.796;2023-02-18T05:55:17;9.30;99.90
5901;DHT22;2976;49.764;9.796;2023-02-18T05:57:42;9.30;99.90
5901;DHT22;2976;49.764;9.796;2023-02-18T06:00:08;9.30;99.90
5901;DHT22;2976;49.764;9.796;2023-02-18T06:02:35;9.20;99.90
5901;DHT22;2976;49.764;9.796;2023-02-18T06:05:00;9.20;99.90
5901;DHT22;2976;49.764;9.796;2023-02-18T06:07:26;9.20;99.90
5901;DHT22;2976;49.764;9.796;2023-02-18T06:09:51;9.20;99.90
5901;DHT22;2976;49.764;9.796;2023-02-18T06:12:18;9.10;99.90
5901;DHT22;2976;49.764;9.796;2023-02-18T06:14:43;9.10;99.90
5901;DHT22;2976;49.764;9.796;2023-02-18T06:17:11;9.10;99.90
5901;DHT22;2976;49.764;9.796;2023-02-18T06:19:37;9.10;99.90
5901;DHT22;2976;49.764;9.796;2023-02-18T06:22:03;9.10;99.90
5901;DHT22;2976;49.764;9.796;2023-02-18T06:24:29;9.10;99.90
5901;DHT22;2976;49.764;9.796;2023-02-18T06:26:55;9.10;99.90
5901;DHT22;2976;49.764;9.796;2023-02-18T06:29:20;9.10;99.90
5901;DHT22;2976;49.764;9.796;2023-02-18T06:31:46;9.10;99.90
5901;DHT22;2976;49.764;9.796;2023-02-18T06:34:11;9.10;99.90
5901;DHT22;2976;49.764;9.796;2023-02-18T06:36:37;9.10;99.90
5901;DHT22;2976;49.764;9.796;2023-02-18T06:39:04;9.20;99.90
5901;DHT22;2976;49.764;9.796;2023-02-18T06:41:30;9.20;99.90
5901;DHT22;2976;49.764;9.796;2023-02-18T06:43:55;9.20;99.90
5901;DHT22;2976;49.764;9.796;2023-02-18T06:46:21;9.20;99.90
5901;DHT22;2976;49.764;9.796;2023-02-18T06:48:47;9.20;99.90
5901;DHT22;2976;49.764;9.796;2023-02-18T06:51:13;9.20;99.90
5901;DHT22;2976;49.764;9.796;2023-02-18T06:53:38;9.20;99.90
5901;DHT22;2976;49.764;9.796;2023-02-18T06:56:04;9.20;99.90
5901;DHT22;2976;49.764;9.796;2023-02-18T06:58:29;9.30;99.90
5901;DHT22;2976;49.764;9.796;2023-02-18T07:00:55;9.30;99.90
5901;DHT22;2976;49.764;9.796;2023-02-18T07:03:20;9.20;99.90
5901;DHT22;2976;49.764;9.796;2023-02-18T07:05:46;9.30;99.90
5901;DHT22;2976;49.764;9.796;2023-02-18T07:08:12;9.30;99.90
5901;DHT22;2976;49.764;9.796;2023-02-18T07:10:37;9.30;99.90
5901;DHT22;2976;49.764;9.796;2023-02-18T07:13:03;9.40;99.90
5901;DHT22;2976;49.764;9.796;2023-02-18T07:15:29;9.30;99.90
5901;DHT22;2976;49.764;9.796;2023-02-18T07:17:54;9.40;99.90
5901;DHT22;2976;49.764;9.796;2023-02-18T07:20:20;9.50;99.90
5901;DHT22;2976;49.764;9.796;2023-02-18T07:22:46;9.50;99.90
5901;DHT22;2976;49.764;9.796;2023-02-18T07:25:12;9.50;99.90
5901;DHT22;2976;49.764;9.796;2023-02-18T07:27:38;9.50;99.90
5901;DHT22;2976;49.764;9.796;2023-02-18T07:30:04;9.70;99.90
5901;DHT22;2976;49.764;9.796;2023-02-18T07:32:29;9.80;99.90
5901;DHT22;2976;49.764;9.796;2023-02-18T07:34:55;9.80;99.90
5901;DHT22;2976;49.764;9.796;2023-02-18T07:37:21;9.90;99.90
5901;DHT22;2976;49.764;9.796;2023-02-18T07:39:47;10.00;99.90
5901;DHT22;2976;49.764;9.796;2023-02-18T07:42:13;10.00;99.90
5901;DHT22;2976;49.764;9.796;2023-02-18T07:44:39;10.00;99.90
5901;DHT22;2976;49.764;9.796;2023-02-18T07:47:07;10.10;99.90
5901;DHT22;2976;49.764;9.796;2023-02-18T07:49:33;10.10;99.90
5901;DHT22;2976;49.764;9.796;2023-02-18T07:51:59;10.00;99.90
5901;DHT22;2976;49.764;9.796;2023-02-18T07:54:25;10.10;99.90
5901;DHT22;2976;49.764;9.796;2023-02-18T07:56:50;10.20;99.90
5901;DHT22;2976;49.764;9.796;2023-02-18T07:59:16;10.20;99.90
5901;DHT22;2976;49.764;9.796;2023-02-18T08:01:41;10.30;99.90
5901;DHT22;2976;49.764;9.796;2023-02-18T08:04:07;10.30;99.90
5901;DHT22;2976;49.764;9.796;2023-02-18T08:06:39;10.30;99.90
5901;DHT22;2976;49.764;9.796;2023-02-18T08:09:05;10.30;99.90
5901;DHT22;2976;49.764;9.796;2023-02-18T08:11:31;10.60;99.90
5901;DHT22;2976;49.764;9.796;2023-02-18T08:13:57;10.60;99.90
5901;DHT22;2976;49.764;9.796;2023-02-18T08:16:22;10.80;99.90
5901;DHT22;2976;49.764;9.796;2023-02-18T08:18:49;10.60;99.90
5901;DHT22;2976;49.764;9.796;2023-02-18T08:21:16;10.50;99.90
5901;DHT22;2976;49.764;9.796;2023-02-18T08:23:42;10.50;99.90
5901;DHT22;2976;49.764;9.796;2023-02-18T08:26:08;10.60;99.90
5901;DHT22;2976;49.764;9.796;2023-02-18T08:28:34;10.60;99.90
5901;DHT22;2976;49.764;9.796;2023-02-18T08:31:00;10.60;99.90
5901;DHT22;2976;49.764;9.796;2023-02-18T08:33:25;10.50;99.90
5901;DHT22;2976;49.764;9.796;2023-02-18T08:35:52;10.60;99.90
5901;DHT22;2976;49.764;9.796;2023-02-18T08:38:19;10.70;99.90
5901;DHT22;2976;49.764;9.796;2023-02-18T08:40:45;10.70;99.90
5901;DHT22;2976;49.764;9.796;2023-02-18T08:43:11;10.60;99.90
5901;DHT22;2976;49.764;9.796;2023-02-18T08:45:37;10.60;99.90
5901;DHT22;2976;49.764;9.796;2023-02-18T08:48:07;10.50;99.90
5901;DHT22;2976;49.764;9.796;2023-02-18T08:50:33;10.60;99.90
5901;DHT22;2976;49.764;9.796;2023-02-18T08:52:59;10.50;99.90
5901;DHT22;2976;49.764;9.796;2023-02-18T08:55:31;10.40;99.90
5901;DHT22;2976;49.764;9.796;2023-02-18T08:57:57;10.40;99.90
5901;DHT22;2976;49.764;9.796;2023-02-18T09:00:23;10.30;99.90
5901;DHT22;2976;49.764;9.796;2023-02-18T09:02:49;10.30;99.90
5901;DHT22;2976;49.764;9.796;2023-02-18T09:05:14;10.20;99.90
5901;DHT22;2976;49.764;9.796;2023-02-18T09:07:40;10.20;99.90
5901;DHT22;2976;49.764;9.796;2023-02-18T09:10:06;10.20;99.90
5901;DHT22;2976;49.764;9.796;2023-02-18T09:12:33;10.20;99.90
5901;DHT22;2976;49.764;9.796;2023-02-18T09:14:59;10.30;99.90
5901;DHT22;2976;49.764;9.796;2023-02-18T09:17:25;10.40;99.90
5901;DHT22;2976;49.764;9.796;2023-02-18T09:19:51;10.40;99.90
5901;DHT22;2976;49.764;9.796;2023-02-18T09:22:17;10.40;99.90
5901;DHT22;2976;49.764;9.796;2023-02-18T09:24:42;10.40;99.90
5901;DHT22;2976;49.764;9.796;2023-02-18T09:27:08;10.40;99.90
5901;DHT22;2976;49.764;9.796;2023-02-18T09:29:37;10.50;99.90
5901;DHT22;2976;49.764;9.796;2023-02-18T09:32:03;10.60;99.90
5901;DHT22;2976;49.764;9.796;2023-02-18T09:34:29;10.70;99.90
5901;DHT22;2976;49.764;9.796;2023-02-18T09:36:55;10.80;99.90
5901;DHT22;2976;49.764;9.796;2023-02-18T09:39:20;10.90;99.90
5901;DHT22;2976;49.764;9.796;2023-02-18T09:49:38;11.00;99.90
5901;DHT22;2976;49.764;9.796;2023-02-18T09:52:28;11.10;99.90
5901;DHT22;2976;49.764;9.796;2023-02-18T09:54:54;11.10;99.90
5901;DHT22;2976;49.764;9.796;2023-02-18T09:57:27;11.20;99.90
5901;DHT22;2976;49.764;9.796;2023-02-18T09:59:59;11.20;99.90
5901;DHT22;2976;49.764;9.796;2023-02-18T10:02:26;11.20;99.90
5901;DHT22;2976;49.764;9.796;2023-02-18T10:04:53;11.20;99.90
5901;DHT22;2976;49.764;9.796;2023-02-18T10:07:28;11.20;99.90
5901;DHT22;2976;49.764;9.796;2023-02-18T10:09:56;11.20;99.90
5901;DHT22;2976;49.764;9.796;2023-02-18T10:12:24;11.20;99.90
5901;DHT22;2976;49.764;9.796;2023-02-18T10:14:56;11.30;99.90
5901;DHT22;2976;49.764;9.796;2023-02-18T10:17:25;11.30;99.90
5901;DHT22;2976;49.764;9.796;2023-02-18T10:19:52;11.40;99.90
5901;DHT22;2976;49.764;9.796;2023-02-18T10:22:19;11.40;99.90
5901;DHT22;2976;49.764;9.796;2023-02-18T10:29:51;11.50;99.90
5901;DHT22;2976;49.764;9.796;2023-02-18T10:32:26;11.50;99.90
5901;DHT22;2976;49.764;9.796;2023-02-18T10:40:24;11.40;99.90
5901;DHT22;2976;49.764;9.796;2023-02-18T10:45:44;11.50;99.90
5901;DHT22;2976;49.764;9.796;2023-02-18T10:50:53;11.60;99.90
5901;DHT22;2976;49.764;9.796;2023-02-18T10:53:34;11.70;99.90
5901;DHT22;2976;49.764;9.796;2023-02-18T10:56:00;11.60;99.90
5901;DHT22;2976;49.764;9.796;2023-02-18T10:58:41;11.60;99.90
5901;DHT22;2976;49.764;9.796;2023-02-18T11:01:14;11.60;99.90
5901;DHT22;2976;49.764;9.796;2023-02-18T11:03:46;11.60;99.90
5901;DHT22;2976;49.764;9.796;2023-02-18T11:06:33;11.60;99.90
5901;DHT22;2976;49.764;9.796;2023-02-18T11:09:02;11.70;99.90
5901;DHT22;2976;49.764;9.796;2023-02-18T11:11:31;11.80;99.90
5901;DHT22;2976;49.764;9.796;2023-02-18T11:14:02;11.80;99.90
5901;DHT22;2976;49.764;9.796;2023-02-18T11:16:41;11.80;99.90
5901;DHT22;2976;49.764;9.796;2023-02-18T11:19:34;11.80;85.50
5901;DHT22;2976;49.764;9.796;2023-02-18T11:22:21;11.80;85.60
5901;DHT22;2976;49.764;9.796;2023-02-18T11:24:47;11.70;94.90
5901;DHT22;2976;49.764;9.796;2023-02-18T11:27:45;11.70;97.00
5901;DHT22;2976;49.764;9.796;2023-02-18T11:32:49;11.80;92.10
5901;DHT22;2976;49.764;9.796;2023-02-18T11:35:18;11.70;86.00
5901;DHT22;2976;49.764;9.796;2023-02-18T11:37:44;11.80;96.60
5901;DHT22;2976;49.764;9.796;2023-02-18T11:40:39;11.70;94.50
5901;DHT22;2976;49.764;9.796;2023-02-18T11:43:14;11.80;82.30
5901;DHT22;2976;49.764;9.796;2023-02-18T11:45:40;11.80;58.50
5901;DHT22;2976;49.764;9.796;2023-02-18T11:48:15;11.80;68.70
5901;DHT22;2976;49.764;9.796;2023-02-18T11:50:41;11.70;65.60
5901;DHT22;2976;49.764;9.796;2023-02-18T11:53:30;11.80;78.10
5901;DHT22;2976;49.764;9.796;2023-02-18T11:55:58;11.70;71.70
5901;DHT22;2976;49.764;9.796;2023-02-18T11:58:24;11.80;46.50
5901;DHT22;2976;49.764;9.796;2023-02-18T12:00:54;11.90;57.50
5901;DHT22;2976;49.764;9.796;2023-02-18T12:06:22;12.00;66.60
5901;DHT22;2976;49.764;9.796;2023-02-18T12:09:14;12.00;53.50
5901;DHT22;2976;49.764;9.796;2023-02-18T12:11:43;11.90;65.40
5901;DHT22;2976;49.764;9.796;2023-02-18T12:14:17;11.90;57.60
5901;DHT22;2976;49.764;9.796;2023-02-18T12:22:09;11.80;28.30
5901;DHT22;2976;49.764;9.796;2023-02-18T12:27:36;11.90;26.90
5901;DHT22;2976;49.764;9.796;2023-02-18T12:36:26;12.10;10.70
5901;DHT22;2976;49.764;9.796;2023-02-18T12:39:10;12.10;32.60
5901;DHT22;2976;49.764;9.796;2023-02-18T12:44:43;11.90;25.70
5901;DHT22;2976;49.764;9.796;2023-02-18T12:47:46;11.90;29.00
5901;DHT22;2976;49.764;9.796;2023-02-18T12:50:53;11.80;32.50
5901;DHT22;2976;49.764;9.796;2023-02-18T12:53:52;11.80;46.20
5901;DHT22;2976;49.764;9.796;2023-02-18T13:04:52;11.60;74.50
5901;DHT22;2976;49.764;9.796;2023-02-18T13:07:49;11.50;62.20
5901;DHT22;2976;49.764;9.796;2023-02-18T13:13:12;11.40;56.40
5901;DHT22;2976;49.764;9.796;2023-02-18T13:15:54;11.50;69.00
5901;DHT22;2976;49.764;9.796;2023-02-18T13:18:27;11.50;73.50
5901;DHT22;2976;49.764;9.796;2023-02-18T13:20:58;11.50;51.10
5901;DHT22;2976;49.764;9.796;2023-02-18T13:23:27;11.50;58.00
5901;DHT22;2976;49.764;9.796;2023-02-18T13:26:00;11.60;71.80
5901;DHT22;2976;49.764;9.796;2023-02-18T13:29:00;11.60;69.80
5901;DHT22;2976;49.764;9.796;2023-02-18T13:31:36;11.60;58.90
5901;DHT22;2976;49.764;9.796;2023-02-18T13:34:12;11.60;50.00
5901;DHT22;2976;49.764;9.796;2023-02-18T13:39:15;11.50;52.70
5901;DHT22;2976;49.764;9.796;2023-02-18T13:41:45;11.50;45.50
5901;DHT22;2976;49.764;9.796;2023-02-18T13:46:49;11.50;60.40
5901;DHT22;2976;49.764;9.796;2023-02-18T13:49:22;11.50;55.40
5901;DHT22;2976;49.764;9.796;2023-02-18T13:51:50;11.50;53.30
5901;DHT22;2976;49.764;9.796;2023-02-18T13:54:24;11.50;68.40
5901;DHT22;2976;49.764;9.796;2023-02-18T13:57:02;11.50;54.80
5901;DHT22;2976;49.764;9.796;2023-02-18T14:09:58;11.20;89.50
5901;DHT22;2976;49.764;9.796;2023-02-18T14:15:54;11.00;99.90
5901;DHT22;2976;49.764;9.796;2023-02-18T14:18:25;10.90;99.90
5901;DHT22;2976;49.764;9.796;2023-02-18T14:23:40;10.70;99.90
5901;DHT22;2976;49.764;9.796;2023-02-18T14:39:10;10.50;99.90
5901;DHT22;2976;49.764;9.796;2023-02-18T14:48:01;10.50;99.90
5901;DHT22;2976;49.764;9.796;2023-02-18T14:50:33;10.70;99.90
5901;DHT22;2976;49.764;9.796;2023-02-18T14:53:04;10.70;99.90
5901;DHT22;2976;49.764;9.796;2023-02-18T14:55:37;10.70;99.90
5901;DHT22;2976;49.764;9.796;2023-02-18T14:58:14;10.80;99.90
5901;DHT22;2976;49.764;9.796;2023-02-18T15:00:45;10.80;99.90
5901;DHT22;2976;49.764;9.796;2023-02-18T15:03:16;10.80;99.90
5901;DHT22;2976;49.764;9.796;2023-02-18T15:05:44;10.80;99.90
5901;DHT22;2976;49.764;9.796;2023-02-18T15:08:22;10.70;99.90
5901;DHT22;2976;49.764;9.796;2023-02-18T15:13:26;10.50;99.90
5901;DHT22;2976;49.764;9.796;2023-02-18T15:16:11;10.50;99.90
5901;DHT22;2976;49.764;9.796;2023-02-18T15:18:59;10.40;99.90
5901;DHT22;2976;49.764;9.796;2023-02-18T15:21:32;10.40;99.90
5901;DHT22;2976;49.764;9.796;2023-02-18T15:24:18;10.30;99.90
5901;DHT22;2976;49.764;9.796;2023-02-18T15:26:47;10.30;99.90
5901;DHT22;2976;49.764;9.796;2023-02-18T15:29:19;10.20;99.90
5901;DHT22;2976;49.764;9.796;2023-02-18T15:31:46;10.10;99.90
5901;DHT22;2976;49.764;9.796;2023-02-18T15:34:37;10.00;99.90
5901;DHT22;2976;49.764;9.796;2023-02-18T15:37:06;10.00;99.90
5901;DHT22;2976;49.764;9.796;2023-02-18T15:39:32;10.00;99.90
5901;DHT22;2976;49.764;9.796;2023-02-18T15:42:22;10.00;99.90
5901;DHT22;2976;49.764;9.796;2023-02-18T15:44:51;10.00;99.90
5901;DHT22;2976;49.764;9.796;2023-02-18T15:47:20;9.90;99.90
5901;DHT22;2976;49.764;9.796;2023-02-18T15:49:50;9.90;99.90
5901;DHT22;2976;49.764;9.796;2023-02-18T15:52:24;9.90;99.90
5901;DHT22;2976;49.764;9.796;2023-02-18T15:54:51;9.80;99.90
5901;DHT22;2976;49.764;9.796;2023-02-18T15:57:25;9.70;99.90
5901;DHT22;2976;49.764;9.796;2023-02-18T15:59:59;9.70;99.90
5901;DHT22;2976;49.764;9.796;2023-02-18T16:02:28;9.60;99.90
5901;DHT22;2976;49.764;9.796;2023-02-18T16:05:00;9.60;99.90
5901;DHT22;2976;49.764;9.796;2023-02-18T16:07:48;9.60;99.90
5901;DHT22;2976;49.764;9.796;2023-02-18T16:10:19;9.60;99.90
5901;DHT22;2976;49.764;9.796;2023-02-18T16:12:49;9.60;99.90
5901;DHT22;2976;49.764;9.796;2023-02-18T16:15:24;9.50;99.90
5901;DHT22;2976;49.764;9.796;2023-02-18T16:17:50;9.40;99.90
5901;DHT22;2976;49.764;9.796;2023-02-18T16:20:32;9.40;99.90
5901;DHT22;2976;49.764;9.796;2023-02-18T16:23:00;9.50;99.90
5901;DHT22;2976;49.764;9.796;2023-02-18T16:25:42;9.50;99.90
5901;DHT22;2976;49.764;9.796;2023-02-18T16:28:21;9.40;99.90
5901;DHT22;2976;49.764;9.796;2023-02-18T16:30:47;9.40;99.90
5901;DHT22;2976;49.764;9.796;2023-02-18T16:33:13;9.40;99.90
5901;DHT22;2976;49.764;9.796;2023-02-18T16:35:39;9.40;99.90
5901;DHT22;2976;49.764;9.796;2023-02-18T16:38:05;9.40;99.90
5901;DHT22;2976;49.764;9.796;2023-02-18T16:40:38;9.40;99.90
5901;DHT22;2976;49.764;9.796;2023-02-18T16:43:19;9.30;99.90
5901;DHT22;2976;49.764;9.796;2023-02-18T16:45:47;9.30;99.90
5901;DHT22;2976;49.764;9.796;2023-02-18T16:48:18;9.20;99.90
5901;DHT22;2976;49.764;9.796;2023-02-18T16:50:45;9.20;99.90
5901;DHT22;2976;49.764;9.796;2023-02-18T16:53:12;9.20;99.90
5901;DHT22;2976;49.764;9.796;2023-02-18T16:55:38;9.20;99.90
5901;DHT22;2976;49.764;9.796;2023-02-18T16:58:04;9.20;99.90
5901;DHT22;2976;49.764;9.796;2023-02-18T17:00:30;9.10;99.90
5901;DHT22;2976;49.764;9.796;2023-02-18T17:02:58;9.00;99.90
5901;DHT22;2976;49.764;9.796;2023-02-18T17:05:29;9.00;99.90
5901;DHT22;2976;49.764;9.796;2023-02-18T17:08:14;8.90;99.90
5901;DHT22;2976;49.764;9.796;2023-02-18T17:10:40;8.90;99.90
5901;DHT22;2976;49.764;9.796;2023-02-18T17:13:12;8.90;99.90
5901;DHT22;2976;49.764;9.796;2023-02-18T17:15:39;8.90;99.90
5901;DHT22;2976;49.764;9.796;2023-02-18T17:18:06;8.90;99.90
5901;DHT22;2976;49.764;9.796;2023-02-18T17:20:32;8.90;99.90
5901;DHT22;2976;49.764;9.796;2023-02-18T17:22:58;8.90;99.90
5901;DHT22;2976;49.764;9.796;2023-02-18T17:25:29;9.00;99.90
5901;DHT22;2976;49.764;9.796;2023-02-18T17:27:55;8.90;99.90
5901;DHT22;2976;49.764;9.796;2023-02-18T17:30:21;9.00;99.90
5901;DHT22;2976;49.764;9.796;2023-02-18T17:32:47;8.90;99.90
5901;DHT22;2976;49.764;9.796;2023-02-18T17:35:17;9.00;99.90
5901;DHT22;2976;49.764;9.796;2023-02-18T17:37:44;9.00;99.90
5901;DHT22;2976;49.764;9.796;2023-02-18T17:40:17;9.00;99.90
5901;DHT22;2976;49.764;9.796;2023-02-18T17:42:43;9.00;99.90
5901;DHT22;2976;49.764;9.796;2023-02-18T17:45:36;9.00;99.90
5901;DHT22;2976;49.764;9.796;2023-02-18T17:48:04;9.10;99.90
5901;DHT22;2976;49.764;9.796;2023-02-18T17:50:30;9.10;99.90
5901;DHT22;2976;49.764;9.796;2023-02-18T17:52:57;9.10;99.90
5901;DHT22;2976;49.764;9.796;2023-02-18T17:55:25;9.20;99.90
5901;DHT22;2976;49.764;9.796;2023-02-18T17:57:52;9.20;99.90
5901;DHT22;2976;49.764;9.796;2023-02-18T18:00:24;9.20;99.90
5901;DHT22;2976;49.764;9.796;2023-02-18T18:02:50;9.30;99.90
5901;DHT22;2976;49.764;9.796;2023-02-18T18:05:27;9.30;99.90
5901;DHT22;2976;49.764;9.796;2023-02-18T18:07:54;9.30;99.90
5901;DHT22;2976;49.764;9.796;2023-02-18T18:10:23;9.30;99.90
5901;DHT22;2976;49.764;9.796;2023-02-18T18:12:53;9.30;99.90
5901;DHT22;2976;49.764;9.796;2023-02-18T18:15:31;9.30;99.90
5901;DHT22;2976;49.764;9.796;2023-02-18T18:17:58;9.30;99.90
5901;DHT22;2976;49.764;9.796;2023-02-18T18:20:25;9.20;99.90
5901;DHT22;2976;49.764;9.796;2023-02-18T18:22:53;9.30;99.90
5901;DHT22;2976;49.764;9.796;2023-02-18T18:25:29;9.30;99.90
5901;DHT22;2976;49.764;9.796;2023-02-18T18:27:55;9.20;99.90
5901;DHT22;2976;49.764;9.796;2023-02-18T18:30:29;9.30;99.90
5901;DHT22;2976;49.764;9.796;2023-02-18T18:32:55;9.30;99.90